Time;durP1;ratioP1;P1;durP2;ratioP2;P2;SDS_P1;SDS_P2;PMS_P1;PMS_P2;Temp;Humidity;BMP_temperature;BMP_pressure;BME280_temperature;BME280_humidity;BME280_pressure;Samples;Min_cycle;Max_cycle;Signal;HPM_P1;HPM_P2
2021/11/29 00:00:20;;;;;;;0.50;0.50;;;;;;;;;;5051554;28;20208;-64
2021/11/29 00:02:48;;;;;;;0.50;0.50;;;;;;;;;;5051920;28;20238;-63
2021/11/29 00:05:15;;;;;;;0.60;0.60;;;;;;;;;;5050725;28;20176;-64
2021/11/29 00:07:41;;;;;;;0.50;0.50;;;;;;;;;;5051781;28;20736;-64
2021/11/29 00:10:07;;;;;;;0.50;0.50;;;;;;;;;;5052724;28;20211;-64
2021/11/29 00:12:33;;;;;;;0.50;0.50;;;;;;;;;;5051511;28;20418;-64
2021/11/29 00:14:59;;;;;;;0.43;0.43;;;;;;;;;;5051567;28;20214;-64
2021/11/29 00:17:25;;;;;;;0.50;0.50;;;;;;;;;;5034898;28;20242;-64
2021/11/29 00:19:51;;;;;;;0.50;0.50;;;;;;;;;;5051441;28;20207;-64
2021/11/29 00:22:18;;;;;;;0.70;0.70;;;;;;;;;;5051369;28;20176;-64
2021/11/29 00:24:44;;;;;;;0.60;0.60;;;;;;;;;;5051457;28;20406;-64
2021/11/29 00:27:10;;;;;;;0.50;0.50;;;;;;;;;;5051369;28;20182;-64
2021/11/29 00:29:36;;;;;;;0.50;0.50;;;;;;;;;;5052520;28;20208;-64
2021/11/29 00:32:03;;;;;;;0.50;0.50;;;;;;;;;;5052262;28;20172;-64
2021/11/29 00:34:29;;;;;;;0.50;0.50;;;;;;;;;;5051135;28;20268;-64
2021/11/29 00:36:55;;;;;;;0.50;0.50;;;;;;;;;;5050898;28;20258;-64
2021/11/29 00:39:21;;;;;;;0.60;0.60;;;;;;;;;;5051068;28;20433;-64
2021/11/29 00:41:47;;;;;;;0.50;0.50;;;;;;;;;;5050940;28;20639;-64
2021/11/29 00:44:13;;;;;;;0.50;0.50;;;;;;;;;;5051132;28;20415;-64
2021/11/29 00:46:39;;;;;;;0.50;0.50;;;;;;;;;;5050985;28;20471;-64
2021/11/29 00:49:05;;;;;;;0.43;0.43;;;;;;;;;;5050889;28;20176;-64
2021/11/29 00:51:31;;;;;;;0.50;0.50;;;;;;;;;;5050607;28;20556;-63
2021/11/29 00:53:57;;;;;;;0.60;0.60;;;;;;;;;;5050883;28;20180;-64
2021/11/29 00:56:23;;;;;;;0.57;0.57;;;;;;;;;;5050607;28;20415;-64
2021/11/29 00:58:49;;;;;;;0.52;0.52;;;;;;;;;;5050850;28;20181;-64
2021/11/29 01:01:16;;;;;;;0.50;0.50;;;;;;;;;;5051759;28;20276;-64
2021/11/29 01:03:42;;;;;;;0.50;0.50;;;;;;;;;;5051832;28;20179;-63
2021/11/29 01:06:09;;;;;;;0.50;0.50;;;;;;;;;;5050673;28;20260;-62
2021/11/29 01:08:35;;;;;;;0.60;0.60;;;;;;;;;;5050736;28;20176;-63
2021/11/29 01:11:02;;;;;;;0.60;0.60;;;;;;;;;;5050181;28;20218;-64
2021/11/29 01:13:28;;;;;;;0.50;0.50;;;;;;;;;;5050674;28;20185;-63
2021/11/29 01:15:54;;;;;;;0.60;0.60;;;;;;;;;;5050691;28;20176;-64
2021/11/29 01:18:20;;;;;;;0.47;0.47;;;;;;;;;;5051430;28;20175;-63
2021/11/29 01:20:46;;;;;;;0.50;0.50;;;;;;;;;;5050288;28;20593;-64
2021/11/29 01:23:13;;;;;;;0.60;0.60;;;;;;;;;;5050646;28;20176;-61
2021/11/29 01:25:39;;;;;;;0.50;0.50;;;;;;;;;;5051917;28;20176;-62
2021/11/29 01:28:05;;;;;;;0.43;0.43;;;;;;;;;;5050439;28;20229;-63
2021/11/29 01:30:32;;;;;;;0.60;0.60;;;;;;;;;;5050063;28;20277;-62
2021/11/29 01:32:58;;;;;;;0.55;0.55;;;;;;;;;;5050517;28;20178;-63
2021/11/29 01:35:24;;;;;;;0.50;0.50;;;;;;;;;;5050351;28;20636;-64
2021/11/29 01:37:50;;;;;;;0.50;0.50;;;;;;;;;;5050692;28;20167;-64
2021/11/29 01:40:16;;;;;;;0.50;0.50;;;;;;;;;;5050335;28;20199;-65
2021/11/29 01:42:58;;;;;;;0.50;0.50;;;;;;;;;;5051805;28;20172;-64
2021/11/29 01:45:24;;;;;;;0.50;0.50;;;;;;;;;;5050505;28;20176;-62
2021/11/29 01:47:50;;;;;;;0.40;0.40;;;;;;;;;;5051434;28;20176;-64
2021/11/29 01:50:16;;;;;;;0.50;0.50;;;;;;;;;;5051463;28;20568;-64
2021/11/29 01:52:42;;;;;;;0.50;0.50;;;;;;;;;;5050213;28;20176;-64
2021/11/29 01:55:08;;;;;;;0.50;0.50;;;;;;;;;;5050236;28;20218;-64
2021/11/29 01:57:34;;;;;;;0.50;0.50;;;;;;;;;;5051507;28;20409;-64
2021/11/29 02:00:00;;;;;;;0.40;0.40;;;;;;;;;;5051223;28;20208;-64
2021/11/29 02:02:28;;;;;;;0.40;0.40;;;;;;;;;;5050092;28;20636;-63
2021/11/29 02:04:58;;;;;;;0.50;0.50;;;;;;;;;;5050318;28;20187;-64
2021/11/29 02:07:24;;;;;;;0.50;0.50;;;;;;;;;;5051305;28;20180;-64
2021/11/29 02:09:50;;;;;;;0.50;0.50;;;;;;;;;;5051091;28;20214;-62
2021/11/29 02:12:16;;;;;;;0.70;0.70;;;;;;;;;;5033367;28;20262;-63
2021/11/29 02:14:46;;;;;;;0.50;0.50;;;;;;;;;;5051650;28;20877;-64
2021/11/29 02:17:12;;;;;;;0.50;0.50;;;;;;;;;;5049818;28;20187;-64
2021/11/29 02:19:43;;;;;;;0.50;0.50;;;;;;;;;;5049862;28;20191;-64
2021/11/29 02:22:09;;;;;;;0.50;0.50;;;;;;;;;;5051136;28;20394;-64
2021/11/29 02:24:35;;;;;;;0.50;0.50;;;;;;;;;;5051104;28;20238;-64
2021/11/29 02:27:01;;;;;;;0.50;0.50;;;;;;;;;;5033244;28;20267;-63
2021/11/29 02:29:27;;;;;;;0.50;0.50;;;;;;;;;;5051458;28;20223;-62
2021/11/29 02:31:53;;;;;;;0.50;0.50;;;;;;;;;;5053472;28;20656;-63
2021/11/29 02:34:21;;;;;;;0.50;0.50;;;;;;;;;;5053585;28;20423;-63
2021/11/29 02:36:48;;;;;;;0.57;0.57;;;;;;;;;;5053426;28;20175;-63
2021/11/29 02:39:15;;;;;;;0.50;0.50;;;;;;;;;;5053414;28;20214;-64
2021/11/29 02:41:42;;;;;;;0.50;0.50;;;;;;;;;;5053531;28;20778;-64
2021/11/29 02:44:08;;;;;;;0.50;0.50;;;;;;;;;;5053469;28;20649;-63
2021/11/29 02:46:34;;;;;;;0.60;0.60;;;;;;;;;;5053716;28;20179;-63
2021/11/29 02:49:00;;;;;;;0.50;0.50;;;;;;;;;;5053208;28;20415;-63
2021/11/29 02:51:29;;;;;;;0.50;0.50;;;;;;;;;;5052965;28;20188;-63
2021/11/29 02:53:59;;;;;;;0.50;0.50;;;;;;;;;;5053075;28;20666;-64
2021/11/29 02:56:25;;;;;;;0.50;0.50;;;;;;;;;;5054409;28;20242;-64
2021/11/29 02:58:51;;;;;;;0.60;0.60;;;;;;;;;;5053121;28;20176;-63
2021/11/29 03:01:19;;;;;;;0.50;0.50;;;;;;;;;;5091606;22;20313;-64
2021/11/29 03:03:49;;;;;;;0.50;0.50;;;;;;;;;;5094493;28;20193;-64
2021/11/29 03:06:15;;;;;;;0.50;0.50;;;;;;;;;;5094617;28;20204;-64
2021/11/29 03:08:41;;;;;;;0.50;0.50;;;;;;;;;;5094483;28;20162;-64
2021/11/29 03:11:07;;;;;;;0.50;0.50;;;;;;;;;;5094063;28;20204;-64
2021/11/29 03:13:33;;;;;;;0.40;0.40;;;;;;;;;;5094343;28;20170;-65
2021/11/29 03:15:59;;;;;;;0.40;0.40;;;;;;;;;;5094333;28;20633;-64
2021/11/29 03:18:29;;;;;;;0.60;0.60;;;;;;;;;;5094298;28;20189;-65
2021/11/29 03:20:55;;;;;;;0.50;0.50;;;;;;;;;;5094009;28;20586;-63
2021/11/29 03:23:21;;;;;;;0.60;0.60;;;;;;;;;;5094193;28;20201;-65
2021/11/29 03:25:47;;;;;;;0.60;0.60;;;;;;;;;;5094178;28;20397;-64
2021/11/29 03:28:14;;;;;;;0.60;0.60;;;;;;;;;;5094074;28;20412;-65
2021/11/29 03:30:40;;;;;;;0.50;0.50;;;;;;;;;;5093702;28;20526;-64
2021/11/29 03:33:06;;;;;;;0.50;0.50;;;;;;;;;;5093801;28;20170;-64
2021/11/29 03:35:32;;;;;;;0.50;0.50;;;;;;;;;;5093936;28;20636;-62
2021/11/29 03:37:57;;;;;;;0.50;0.50;;;;;;;;;;5075696;28;20409;-63
2021/11/29 03:40:23;;;;;;;0.50;0.50;;;;;;;;;;5093439;28;20191;-65
2021/11/29 03:42:49;;;;;;;0.50;0.50;;;;;;;;;;5093762;28;20440;-64
2021/11/29 03:45:15;;;;;;;0.50;0.50;;;;;;;;;;5093748;28;20166;-65
2021/11/29 03:47:41;;;;;;;0.60;0.60;;;;;;;;;;5093605;28;20170;-65
2021/11/29 03:50:08;;;;;;;0.60;0.60;;;;;;;;;;5093336;28;20459;-64
2021/11/29 03:52:34;;;;;;;0.50;0.50;;;;;;;;;;5093457;28;20521;-65
2021/11/29 03:54:59;;;;;;;0.50;0.50;;;;;;;;;;5093716;28;20254;-64
2021/11/29 03:57:25;;;;;;;0.60;0.60;;;;;;;;;;5093568;28;20404;-63
2021/11/29 03:59:52;;;;;;;0.60;0.60;;;;;;;;;;5093283;28;20401;-64
2021/11/29 04:02:18;;;;;;;0.50;0.50;;;;;;;;;;5093131;28;20862;-63
2021/11/29 04:04:44;;;;;;;0.50;0.50;;;;;;;;;;5093416;28;20174;-63
2021/11/29 04:07:10;;;;;;;0.50;0.50;;;;;;;;;;5093271;28;20177;-64
2021/11/29 04:09:36;;;;;;;0.50;0.50;;;;;;;;;;5075345;28;20201;-64
2021/11/29 04:12:02;;;;;;;0.50;0.50;;;;;;;;;;5074847;28;20408;-64
2021/11/29 04:14:29;;;;;;;0.60;0.60;;;;;;;;;;5093179;28;20167;-65
2021/11/29 04:16:54;;;;;;;0.50;0.50;;;;;;;;;;5092985;28;20249;-65
2021/11/29 04:19:20;;;;;;;0.50;0.50;;;;;;;;;;5093099;28;20323;-64
2021/11/29 04:21:47;;;;;;;0.50;0.50;;;;;;;;;;5092772;28;21055;-64
2021/11/29 04:24:14;;;;;;;0.68;0.68;;;;;;;;;;5092981;28;20401;-64
2021/11/29 04:26:41;;;;;;;0.50;0.50;;;;;;;;;;5092949;28;20561;-64
2021/11/29 04:29:18;;;;;;;0.50;0.50;;;;;;;;;;5092867;28;20177;-64
2021/11/29 04:31:44;;;;;;;0.50;0.50;;;;;;;;;;5092576;28;20178;-65
2021/11/29 04:34:10;;;;;;;0.70;0.70;;;;;;;;;;5092679;28;20182;-65
2021/11/29 04:36:36;;;;;;;0.50;0.50;;;;;;;;;;5092692;28;20167;-65
2021/11/29 04:39:02;;;;;;;0.50;0.50;;;;;;;;;;5092688;28;20398;-65
2021/11/29 04:41:28;;;;;;;0.52;0.52;;;;;;;;;;5092489;28;20188;-64
2021/11/29 04:43:54;;;;;;;0.60;0.60;;;;;;;;;;5092526;28;20526;-65
2021/11/29 04:46:20;;;;;;;0.50;0.50;;;;;;;;;;5092656;28;20177;-64
2021/11/29 04:48:47;;;;;;;0.50;0.50;;;;;;;;;;5092700;28;20446;-64
2021/11/29 04:51:13;;;;;;;0.52;0.52;;;;;;;;;;5091613;28;20207;-64
2021/11/29 04:53:41;;;;;;;0.63;0.63;;;;;;;;;;5092459;28;20174;-65
2021/11/29 04:56:07;;;;;;;0.50;0.50;;;;;;;;;;5092419;28;20805;-65
2021/11/29 04:58:33;;;;;;;0.60;0.60;;;;;;;;;;5092220;28;20170;-65
2021/11/29 05:00:59;;;;;;;0.50;0.50;;;;;;;;;;5073686;28;20210;-66
2021/11/29 05:03:25;;;;;;;0.50;0.50;;;;;;;;;;5092319;28;20174;-65
2021/11/29 05:05:51;;;;;;;0.50;0.50;;;;;;;;;;5092177;28;20563;-65
2021/11/29 05:08:17;;;;;;;0.50;0.50;;;;;;;;;;5092242;28;20880;-64
2021/11/29 05:10:43;;;;;;;0.60;0.60;;;;;;;;;;5092024;28;20874;-64
2021/11/29 05:13:09;;;;;;;0.50;0.50;;;;;;;;;;5092087;28;20198;-65
2021/11/29 05:15:35;;;;;;;0.60;0.60;;;;;;;;;;5092086;28;20450;-63
2021/11/29 05:18:01;;;;;;;0.50;0.50;;;;;;;;;;5092078;28;20173;-64
2021/11/29 05:20:27;;;;;;;0.60;0.60;;;;;;;;;;5091719;28;20198;-64
2021/11/29 05:22:53;;;;;;;0.50;0.50;;;;;;;;;;5091967;28;20174;-65
2021/11/29 05:25:19;;;;;;;0.60;0.60;;;;;;;;;;5091965;28;20223;-65
2021/11/29 05:27:46;;;;;;;0.40;0.40;;;;;;;;;;5091785;28;20263;-65
2021/11/29 05:30:12;;;;;;;0.50;0.50;;;;;;;;;;5091534;28;20202;-64
2021/11/29 05:32:38;;;;;;;0.50;0.50;;;;;;;;;;5091863;28;20521;-63
2021/11/29 05:35:05;;;;;;;0.60;0.60;;;;;;;;;;5091635;28;20165;-64
2021/11/29 05:37:31;;;;;;;0.50;0.50;;;;;;;;;;5091750;28;20162;-64
2021/11/29 05:39:57;;;;;;;0.50;0.50;;;;;;;;;;5091819;28;20204;-64
2021/11/29 05:42:23;;;;;;;0.50;0.50;;;;;;;;;;5091440;28;20174;-62
2021/11/29 05:44:50;;;;;;;0.60;0.60;;;;;;;;;;5092147;28;20400;-64
2021/11/29 05:47:20;;;;;;;0.50;0.50;;;;;;;;;;5089630;28;20174;-65
2021/11/29 05:49:46;;;;;;;0.50;0.50;;;;;;;;;;5091215;28;20190;-65
2021/11/29 05:52:12;;;;;;;0.50;0.50;;;;;;;;;;5091514;28;20209;-65
2021/11/29 05:54:39;;;;;;;0.50;0.50;;;;;;;;;;5091582;28;20246;-65
2021/11/29 05:57:05;;;;;;;0.60;0.60;;;;;;;;;;5091258;28;20174;-65
2021/11/29 05:59:31;;;;;;;0.50;0.50;;;;;;;;;;5091768;28;20647;-64
2021/11/29 06:01:57;;;;;;;0.50;0.50;;;;;;;;;;5091597;28;20202;-65
2021/11/29 06:04:22;;;;;;;0.60;0.60;;;;;;;;;;5093473;28;20412;-64
2021/11/29 06:06:49;;;;;;;0.50;0.50;;;;;;;;;;5096214;28;20414;-64
2021/11/29 06:09:15;;;;;;;0.50;0.50;;;;;;;;;;5095947;28;20899;-64
2021/11/29 06:11:41;;;;;;;0.50;0.50;;;;;;;;;;5095536;28;20201;-65
2021/11/29 06:14:07;;;;;;;0.60;0.60;;;;;;;;;;5095121;28;20400;-65
2021/11/29 06:16:33;;;;;;;0.60;0.60;;;;;;;;;;5095266;28;20193;-65
2021/11/29 06:18:59;;;;;;;0.50;0.50;;;;;;;;;;5095309;28;20167;-66
2021/11/29 06:21:25;;;;;;;0.50;0.50;;;;;;;;;;5076997;28;20206;-66
2021/11/29 06:23:51;;;;;;;0.50;0.50;;;;;;;;;;5095350;28;20155;-66
2021/11/29 06:26:18;;;;;;;0.50;0.50;;;;;;;;;;5095328;28;20169;-64
2021/11/29 06:28:44;;;;;;;0.50;0.50;;;;;;;;;;5077056;28;20488;-64
2021/11/29 06:31:10;;;;;;;0.50;0.50;;;;;;;;;;5094761;28;20209;-64
2021/11/29 06:33:36;;;;;;;0.55;0.55;;;;;;;;;;5095176;28;20163;-64
2021/11/29 06:36:03;;;;;;;0.50;0.50;;;;;;;;;;5095243;28;20208;-66
2021/11/29 06:38:29;;;;;;;0.60;0.60;;;;;;;;;;5095062;28;20178;-64
2021/11/29 06:40:56;;;;;;;0.70;0.70;;;;;;;;;;5094486;28;20222;-66
2021/11/29 06:43:22;;;;;;;0.50;0.50;;;;;;;;;;5076497;28;20166;-66
2021/11/29 06:45:49;;;;;;;0.50;0.50;;;;;;;;;;5094814;28;20181;-64
2021/11/29 06:48:15;;;;;;;0.60;0.60;;;;;;;;;;5094971;28;20181;-65
2021/11/29 06:50:41;;;;;;;0.60;0.60;;;;;;;;;;5094962;28;20210;-66
2021/11/29 06:53:07;;;;;;;0.50;0.50;;;;;;;;;;5094858;28;20166;-65
2021/11/29 06:55:33;;;;;;;0.60;0.60;;;;;;;;;;5094904;28;20400;-67
2021/11/29 06:57:59;;;;;;;0.50;0.50;;;;;;;;;;5094817;28;20194;-65
2021/11/29 07:00:26;;;;;;;0.50;0.50;;;;;;;;;;5094068;28;20198;-66
2021/11/29 07:02:53;;;;;;;0.70;0.70;;;;;;;;;;5094502;28;20166;-66
2021/11/29 07:05:19;;;;;;;0.50;0.50;;;;;;;;;;5094483;28;20171;-66
2021/11/29 07:07:47;;;;;;;0.60;0.60;;;;;;;;;;5094539;28;20170;-66
2021/11/29 07:10:13;;;;;;;0.50;0.50;;;;;;;;;;5094072;28;20229;-65
2021/11/29 07:12:40;;;;;;;0.50;0.50;;;;;;;;;;5094337;28;20251;-66
2021/11/29 07:15:06;;;;;;;0.50;0.50;;;;;;;;;;5094195;28;20173;-66
2021/11/29 07:17:32;;;;;;;0.60;0.60;;;;;;;;;;5094255;28;20166;-66
2021/11/29 07:19:58;;;;;;;0.60;0.60;;;;;;;;;;5094130;28;20214;-66
2021/11/29 07:22:25;;;;;;;0.60;0.60;;;;;;;;;;5093991;28;20174;-65
2021/11/29 07:24:52;;;;;;;0.50;0.50;;;;;;;;;;5094132;28;20189;-66
2021/11/29 07:27:19;;;;;;;0.50;0.50;;;;;;;;;;5094083;28;20185;-63
2021/11/29 07:29:45;;;;;;;0.60;0.60;;;;;;;;;;5091822;28;20252;-66
2021/11/29 07:32:10;;;;;;;0.50;0.50;;;;;;;;;;5092985;28;20190;-66
2021/11/29 07:34:37;;;;;;;0.50;0.50;;;;;;;;;;5093877;28;20245;-66
2021/11/29 07:37:03;;;;;;;0.50;0.50;;;;;;;;;;5093973;28;20401;-67
2021/11/29 07:39:29;;;;;;;0.50;0.50;;;;;;;;;;5093744;28;20525;-66
2021/11/29 07:41:57;;;;;;;0.50;0.50;;;;;;;;;;5093039;28;20187;-67
2021/11/29 07:44:23;;;;;;;0.50;0.50;;;;;;;;;;5093688;28;20177;-66
2021/11/29 07:46:49;;;;;;;0.50;0.50;;;;;;;;;;5093549;28;20170;-66
2021/11/29 07:49:15;;;;;;;0.50;0.50;;;;;;;;;;5094341;28;20461;-66
2021/11/29 07:51:42;;;;;;;0.50;0.50;;;;;;;;;;5093299;28;20248;-66
2021/11/29 07:54:08;;;;;;;0.50;0.50;;;;;;;;;;5093572;28;20405;-65
2021/11/29 07:56:34;;;;;;;0.70;0.70;;;;;;;;;;5093443;28;20167;-64
2021/11/29 07:59:00;;;;;;;0.50;0.50;;;;;;;;;;5093445;28;20171;-65
2021/11/29 08:01:26;;;;;;;0.50;0.50;;;;;;;;;;5093115;28;20474;-64
2021/11/29 08:03:52;;;;;;;0.50;0.50;;;;;;;;;;5093400;28;20428;-64
2021/11/29 08:06:18;;;;;;;0.50;0.50;;;;;;;;;;5093357;28;20194;-65
2021/11/29 08:08:44;;;;;;;0.50;0.50;;;;;;;;;;5093230;28;20243;-65
2021/11/29 08:11:10;;;;;;;0.65;0.65;;;;;;;;;;5092734;28;20208;-66
2021/11/29 08:13:36;;;;;;;0.50;0.50;;;;;;;;;;5093176;28;20165;-65
2021/11/29 08:16:02;;;;;;;0.60;0.60;;;;;;;;;;5093079;28;20162;-66
2021/11/29 08:18:28;;;;;;;0.60;0.60;;;;;;;;;;5093109;28;20413;-65
2021/11/29 08:20:54;;;;;;;0.50;0.50;;;;;;;;;;5092801;28;20231;-66
2021/11/29 08:23:20;;;;;;;0.50;0.50;;;;;;;;;;5092262;28;20180;-66
2021/11/29 08:25:46;;;;;;;0.50;0.50;;;;;;;;;;5092450;28;20432;-66
2021/11/29 08:28:12;;;;;;;0.50;0.50;;;;;;;;;;5092354;28;20413;-65
2021/11/29 08:30:39;;;;;;;0.60;0.60;;;;;;;;;;5074433;28;20490;-66
2021/11/29 08:33:06;;;;;;;0.50;0.50;;;;;;;;;;5092774;28;20185;-66
2021/11/29 08:35:32;;;;;;;0.60;0.60;;;;;;;;;;5092723;28;20187;-63
2021/11/29 08:37:58;;;;;;;0.60;0.60;;;;;;;;;;5092862;28;20200;-64
2021/11/29 08:40:30;;;;;;;0.50;0.50;;;;;;;;;;5092188;28;20194;-64
2021/11/29 08:42:57;;;;;;;0.57;0.57;;;;;;;;;;5092696;28;20185;-65
2021/11/29 08:45:23;;;;;;;0.50;0.50;;;;;;;;;;5092405;28;20176;-63
2021/11/29 08:47:49;;;;;;;0.50;0.50;;;;;;;;;;5092489;28;20172;-65
2021/11/29 08:50:15;;;;;;;0.60;0.60;;;;;;;;;;5092104;28;20276;-65
2021/11/29 08:52:44;;;;;;;0.50;0.50;;;;;;;;;;5092404;28;20198;-65
2021/11/29 08:55:10;;;;;;;0.50;0.50;;;;;;;;;;5092387;28;20427;-63
2021/11/29 08:57:36;;;;;;;0.70;0.70;;;;;;;;;;5092293;28;20577;-65
2021/11/29 09:02:28;;;;;;;0.50;0.50;;;;;;;;;;5114766;22;20235;-63
2021/11/29 09:04:54;;;;;;;0.50;0.50;;;;;;;;;;5091992;28;20177;-64
2021/11/29 09:07:20;;;;;;;0.50;0.50;;;;;;;;;;5092334;28;20382;-64
2021/11/29 09:09:46;;;;;;;0.50;0.50;;;;;;;;;;5092111;28;20194;-63
2021/11/29 09:12:14;;;;;;;0.60;0.60;;;;;;;;;;5091806;28;20188;-64
2021/11/29 09:14:41;;;;;;;0.50;0.50;;;;;;;;;;5092069;28;20185;-63
2021/11/29 09:17:07;;;;;;;0.50;0.50;;;;;;;;;;5091971;28;20174;-63
2021/11/29 09:19:32;;;;;;;0.60;0.60;;;;;;;;;;5092181;28;20231;-64
2021/11/29 09:21:58;;;;;;;0.50;0.50;;;;;;;;;;5091733;28;20421;-63
2021/11/29 09:24:24;;;;;;;0.50;0.50;;;;;;;;;;5091992;28;20178;-64
2021/11/29 09:26:51;;;;;;;0.50;0.50;;;;;;;;;;5092200;28;20177;-64
2021/11/29 09:29:17;;;;;;;0.60;0.60;;;;;;;;;;5091620;28;20171;-64
2021/11/29 09:31:43;;;;;;;0.50;0.50;;;;;;;;;;5091453;28;20178;-64
2021/11/29 09:34:09;;;;;;;0.40;0.40;;;;;;;;;;5091806;28;20709;-64
2021/11/29 09:36:35;;;;;;;0.60;0.60;;;;;;;;;;5091597;28;20404;-64
2021/11/29 09:39:02;;;;;;;0.50;0.50;;;;;;;;;;5091601;28;20170;-64
2021/11/29 09:41:28;;;;;;;0.50;0.50;;;;;;;;;;5091375;28;20186;-64
2021/11/29 09:43:54;;;;;;;0.50;0.50;;;;;;;;;;5091447;28;20194;-64
2021/11/29 09:46:22;;;;;;;0.60;0.60;;;;;;;;;;5090153;28;20175;-64
2021/11/29 09:48:48;;;;;;;0.50;0.50;;;;;;;;;;5091714;28;20170;-64
2021/11/29 09:51:14;;;;;;;0.50;0.50;;;;;;;;;;5091150;28;20209;-64
2021/11/29 09:53:41;;;;;;;0.50;0.50;;;;;;;;;;5091572;28;20698;-64
2021/11/29 09:56:07;;;;;;;0.50;0.50;;;;;;;;;;5091514;28;20242;-64
2021/11/29 09:58:33;;;;;;;0.50;0.50;;;;;;;;;;5091436;28;20159;-64
2021/11/29 10:01:01;;;;;;;0.50;0.50;;;;;;;;;;5091251;28;20540;-64
2021/11/29 10:03:27;;;;;;;0.60;0.60;;;;;;;;;;5091598;28;20176;-65
2021/11/29 10:05:54;;;;;;;0.50;0.50;;;;;;;;;;5091543;28;20328;-64
2021/11/29 10:08:33;;;;;;;0.40;0.40;;;;;;;;;;5091457;28;20324;-64
2021/11/29 10:11:05;;;;;;;0.50;0.50;;;;;;;;;;5091000;28;20200;-64
2021/11/29 10:13:44;;;;;;;0.68;0.68;;;;;;;;;;5091423;28;20663;-64
2021/11/29 10:16:10;;;;;;;0.40;0.40;;;;;;;;;;5091476;28;20250;-65
2021/11/29 10:18:36;;;;;;;0.40;0.40;;;;;;;;;;5091457;28;20587;-65
2021/11/29 10:21:06;;;;;;;0.50;0.50;;;;;;;;;;5091126;28;20413;-65
2021/11/29 10:23:35;;;;;;;0.50;0.50;;;;;;;;;;5091400;28;20260;-65
2021/11/29 10:26:06;;;;;;;0.60;0.60;;;;;;;;;;5091347;28;20180;-64
2021/11/29 10:28:32;;;;;;;0.60;0.60;;;;;;;;;;5073196;28;20183;-65
2021/11/29 10:31:07;;;;;;;0.50;0.50;;;;;;;;;;5090924;28;20686;-64
2021/11/29 10:33:33;;;;;;;0.50;0.50;;;;;;;;;;5091309;28;20409;-65
2021/11/29 10:36:09;;;;;;;0.50;0.50;;;;;;;;;;5091232;28;20167;-65
2021/11/29 10:38:35;;;;;;;0.50;0.50;;;;;;;;;;5091176;28;20168;-65
2021/11/29 10:41:01;;;;;;;0.47;0.47;;;;;;;;;;5090932;28;20278;-65
2021/11/29 10:43:40;;;;;;;0.40;0.40;;;;;;;;;;5073031;28;20259;-65
2021/11/29 10:46:24;;;;;;;0.50;0.50;;;;;;;;;;5091196;28;20409;-64
2021/11/29 10:48:51;;;;;;;0.60;0.60;;;;;;;;;;5089866;28;20193;-64
2021/11/29 10:51:18;;;;;;;0.50;0.50;;;;;;;;;;5092561;28;20215;-64
2021/11/29 10:53:45;;;;;;;0.70;0.70;;;;;;;;;;5077081;28;20173;-64
2021/11/29 10:56:11;;;;;;;0.52;0.52;;;;;;;;;;5076402;28;20179;-64
2021/11/29 10:58:41;;;;;;;0.60;0.60;;;;;;;;;;5076368;28;20545;-64
2021/11/29 11:01:07;;;;;;;0.50;0.50;;;;;;;;;;5075549;28;20217;-63
2021/11/29 11:03:56;;;;;;;0.57;0.57;;;;;;;;;;5076513;28;20180;-63
2021/11/29 11:06:26;;;;;;;0.60;0.60;;;;;;;;;;5076539;28;20662;-64
2021/11/29 11:08:53;;;;;;;0.70;0.70;;;;;;;;;;5076133;28;20181;-64
2021/11/29 11:11:31;;;;;;;0.45;0.45;;;;;;;;;;5075817;28;20209;-64
2021/11/29 11:14:06;;;;;;;0.52;0.52;;;;;;;;;;5076001;28;20643;-64
2021/11/29 11:16:46;;;;;;;0.60;0.60;;;;;;;;;;5076028;28;20172;-64
2021/11/29 11:19:26;;;;;;;0.60;0.60;;;;;;;;;;5076066;28;20307;-63
2021/11/29 11:21:53;;;;;;;0.50;0.50;;;;;;;;;;5075596;28;20195;-64
2021/11/29 11:24:22;;;;;;;0.60;0.60;;;;;;;;;;5075797;28;20167;-64
2021/11/29 11:26:49;;;;;;;0.50;0.50;;;;;;;;;;5093920;28;20669;-64
2021/11/29 11:29:30;;;;;;;0.50;0.50;;;;;;;;;;5075764;28;20551;-64
2021/11/29 11:32:07;;;;;;;0.50;0.50;;;;;;;;;;5075412;28;20670;-64
2021/11/29 11:34:34;;;;;;;0.70;0.70;;;;;;;;;;5075631;28;20166;-64
2021/11/29 11:36:59;;;;;;;0.60;0.60;;;;;;;;;;5093796;28;20253;-64
2021/11/29 11:39:26;;;;;;;0.60;0.60;;;;;;;;;;5075481;28;20309;-64
2021/11/29 11:41:52;;;;;;;0.50;0.50;;;;;;;;;;5075243;28;20739;-64
2021/11/29 11:44:18;;;;;;;0.50;0.50;;;;;;;;;;5075445;28;20181;-64
2021/11/29 11:46:44;;;;;;;0.60;0.60;;;;;;;;;;5075371;28;20174;-64
2021/11/29 11:49:10;;;;;;;0.50;0.50;;;;;;;;;;5075339;28;20754;-64
2021/11/29 11:51:38;;;;;;;0.50;0.50;;;;;;;;;;5075023;28;20713;-64
2021/11/29 11:54:04;;;;;;;0.50;0.50;;;;;;;;;;5075444;28;20214;-63
2021/11/29 11:56:30;;;;;;;0.50;0.50;;;;;;;;;;5075358;28;20214;-64
2021/11/29 11:59:03;;;;;;;0.57;0.57;;;;;;;;;;5075333;28;20173;-64
2021/11/29 12:01:30;;;;;;;0.50;0.50;;;;;;;;;;5090815;28;20268;-64
2021/11/29 12:03:56;;;;;;;0.50;0.50;;;;;;;;;;5075176;28;20724;-64
2021/11/29 12:06:33;;;;;;;0.50;0.50;;;;;;;;;;5074813;28;20181;-64
2021/11/29 12:09:01;;;;;;;0.50;0.50;;;;;;;;;;5075213;28;20172;-63
2021/11/29 12:11:31;;;;;;;0.50;0.50;;;;;;;;;;5074399;28;20217;-64
2021/11/29 12:14:12;;;;;;;0.60;0.60;;;;;;;;;;5074711;28;20198;-63
2021/11/29 12:16:45;;;;;;;0.60;0.60;;;;;;;;;;5073434;28;20703;-63
2021/11/29 12:19:26;;;;;;;0.50;0.50;;;;;;;;;;5074292;28;20180;-64
2021/11/29 12:21:53;;;;;;;0.50;0.50;;;;;;;;;;5092689;28;20203;-64
2021/11/29 12:24:21;;;;;;;0.50;0.50;;;;;;;;;;5092887;28;20522;-64
2021/11/29 12:26:48;;;;;;;0.50;0.50;;;;;;;;;;5074707;28;20171;-64
2021/11/29 12:29:23;;;;;;;0.60;0.60;;;;;;;;;;5074034;28;20316;-64
2021/11/29 12:31:52;;;;;;;0.50;0.50;;;;;;;;;;5074226;28;20673;-64
2021/11/29 12:34:37;;;;;;;0.50;0.50;;;;;;;;;;5074450;28;20180;-64
2021/11/29 12:37:03;;;;;;;0.50;0.50;;;;;;;;;;5074459;28;20167;-63
2021/11/29 12:39:44;;;;;;;0.50;0.50;;;;;;;;;;5073969;28;20171;-64
2021/11/29 12:42:19;;;;;;;0.50;0.50;;;;;;;;;;5092431;28;20942;-64
2021/11/29 12:44:46;;;;;;;0.50;0.50;;;;;;;;;;5074108;28;20182;-64
2021/11/29 12:47:17;;;;;;;0.50;0.50;;;;;;;;;;5074158;28;20179;-64
2021/11/29 12:49:43;;;;;;;0.50;0.50;;;;;;;;;;5092136;28;20194;-64
2021/11/29 12:52:29;;;;;;;0.50;0.50;;;;;;;;;;5073621;28;20277;-64
2021/11/29 12:54:56;;;;;;;0.50;0.50;;;;;;;;;;5092019;28;20312;-64
2021/11/29 12:57:24;;;;;;;0.50;0.50;;;;;;;;;;5075517;28;20316;-65
2021/11/29 13:00:01;;;;;;;0.60;0.60;;;;;;;;;;5092556;28;20171;-65
2021/11/29 13:02:36;;;;;;;0.50;0.50;;;;;;;;;;5073823;28;20301;-65
2021/11/29 13:05:22;;;;;;;0.50;0.50;;;;;;;;;;5073977;28;20179;-65
2021/11/29 13:07:58;;;;;;;0.50;0.50;;;;;;;;;;5074346;28;20178;-65
2021/11/29 13:10:42;;;;;;;0.50;0.50;;;;;;;;;;5091713;28;20572;-65
2021/11/29 13:13:27;;;;;;;0.60;0.60;;;;;;;;;;5091518;28;20170;-65
2021/11/29 13:15:54;;;;;;;0.50;0.50;;;;;;;;;;5073745;28;20209;-65
2021/11/29 13:18:39;;;;;;;0.50;0.50;;;;;;;;;;5091959;28;20249;-65
2021/11/29 13:21:05;;;;;;;0.40;0.40;;;;;;;;;;5091835;28;20704;-65
2021/11/29 13:23:31;;;;;;;0.50;0.50;;;;;;;;;;5073610;28;20205;-65
2021/11/29 13:26:05;;;;;;;0.50;0.50;;;;;;;;;;5073665;28;20212;-65
2021/11/29 13:28:31;;;;;;;0.40;0.40;;;;;;;;;;5073094;28;20421;-65
2021/11/29 13:30:57;;;;;;;0.50;0.50;;;;;;;;;;5072716;28;20209;-65
2021/11/29 13:33:23;;;;;;;0.50;0.50;;;;;;;;;;5073463;28;20580;-65
2021/11/29 13:35:49;;;;;;;0.50;0.50;;;;;;;;;;5073630;28;20175;-65
2021/11/29 13:38:15;;;;;;;0.50;0.50;;;;;;;;;;5056960;28;20174;-65
2021/11/29 13:40:42;;;;;;;0.50;0.50;;;;;;;;;;5056775;28;20318;-65
2021/11/29 13:43:08;;;;;;;0.50;0.50;;;;;;;;;;5073936;28;20695;-65
2021/11/29 13:45:34;;;;;;;0.50;0.50;;;;;;;;;;5056817;28;20268;-65
2021/11/29 13:48:08;;;;;;;0.50;0.50;;;;;;;;;;5073487;28;20189;-65
2021/11/29 13:50:35;;;;;;;0.60;0.60;;;;;;;;;;5073211;28;20206;-65
2021/11/29 13:53:06;;;;;;;0.60;0.60;;;;;;;;;;5073581;28;20254;-65
2021/11/29 13:55:33;;;;;;;0.50;0.50;;;;;;;;;;5073750;28;20179;-65
2021/11/29 13:58:05;;;;;;;0.50;0.50;;;;;;;;;;5073503;28;20672;-65
2021/11/29 14:00:36;;;;;;;0.50;0.50;;;;;;;;;;5073098;28;20567;-65
2021/11/29 14:03:05;;;;;;;0.60;0.60;;;;;;;;;;5091140;28;20182;-65
2021/11/29 14:05:32;;;;;;;0.60;0.60;;;;;;;;;;5072167;28;20600;-65
2021/11/29 14:08:00;;;;;;;0.50;0.50;;;;;;;;;;5073239;28;20182;-65
2021/11/29 14:10:35;;;;;;;0.47;0.47;;;;;;;;;;5073502;28;20228;-65
2021/11/29 14:13:01;;;;;;;0.60;0.60;;;;;;;;;;5074143;28;20183;-65
2021/11/29 14:15:31;;;;;;;0.50;0.50;;;;;;;;;;5072971;28;20656;-65
2021/11/29 14:17:58;;;;;;;0.50;0.50;;;;;;;;;;5091181;28;20179;-65
2021/11/29 14:20:26;;;;;;;0.60;0.60;;;;;;;;;;5072928;28;20199;-65
2021/11/29 14:22:53;;;;;;;0.47;0.47;;;;;;;;;;5088895;28;20185;-65
2021/11/29 14:25:19;;;;;;;0.50;0.50;;;;;;;;;;5074906;28;20645;-65
2021/11/29 14:27:46;;;;;;;0.60;0.60;;;;;;;;;;5095073;28;20182;-65
2021/11/29 14:30:12;;;;;;;0.60;0.60;;;;;;;;;;5094223;28;20292;-65
2021/11/29 14:32:38;;;;;;;0.50;0.50;;;;;;;;;;5095147;28;20186;-65
2021/11/29 14:35:06;;;;;;;0.50;0.50;;;;;;;;;;5076752;28;20174;-65
2021/11/29 14:37:35;;;;;;;0.50;0.50;;;;;;;;;;5076671;28;20166;-65
2021/11/29 14:40:03;;;;;;;0.50;0.50;;;;;;;;;;5076131;28;20172;-65
2021/11/29 14:42:30;;;;;;;0.50;0.50;;;;;;;;;;5075729;28;20265;-65
2021/11/29 14:44:58;;;;;;;0.50;0.50;;;;;;;;;;5060266;28;20183;-65
2021/11/29 14:47:25;;;;;;;0.50;0.50;;;;;;;;;;5094684;28;20179;-65